Time;durP1;ratioP1;P1;durP2;ratioP2;P2;SDS_P1;SDS_P2;PMS_P1;PMS_P2;Temp;Humidity;BMP_temperature;BMP_pressure;BME280_temperature;BME280_humidity;BME280_pressure;Samples;Min_cycle;Max_cycle;Signal;HPM_P1;HPM_P2
2021/03/06 00:00:26;;;;;;;13.62;9.53;;;;;;;-2.70;78.02;99148.49;1779572;80;21011;-82
2021/03/06 00:02:54;;;;;;;13.72;8.88;;;;;;;-2.70;78.05;99148.04;1779443;80;21008;-81
2021/03/06 00:05:25;;;;;;;16.40;9.10;;;;;;;-2.70;77.90;99155.93;1779537;80;20946;-82
2021/03/06 00:07:56;;;;;;;18.07;11.50;;;;;;;-2.71;77.54;99160.78;1779695;80;21301;-82
2021/03/06 00:10:27;;;;;;;17.10;11.20;;;;;;;-2.72;77.62;99155.07;1771080;79;21327;-81
2021/03/06 00:12:57;;;;;;;16.50;10.78;;;;;;;-2.71;77.63;99154.20;1779586;80;21346;-81
2021/03/06 00:15:29;;;;;;;17.15;11.40;;;;;;;-2.72;77.54;99153.76;1780403;79;20940;-83
2021/03/06 00:17:57;;;;;;;15.05;10.63;;;;;;;-2.72;77.46;99157.70;1781930;80;20946;-81
2021/03/06 00:20:28;;;;;;;13.70;9.53;;;;;;;-2.74;77.30;99156.84;1825117;78;21209;-81
2021/03/06 00:22:57;;;;;;;18.07;11.35;;;;;;;-2.76;77.03;99153.32;1780321;80;20968;-82
2021/03/06 00:25:26;;;;;;;16.40;11.90;;;;;;;-2.80;76.97;99152.92;1812957;78;20928;-81
2021/03/06 00:27:56;;;;;;;16.65;10.08;;;;;;;-2.81;77.00;99155.10;1780041;80;21015;-81
2021/03/06 00:30:26;;;;;;;17.75;12.05;;;;;;;-2.84;77.01;99157.73;1780056;80;20932;-81
2021/03/06 00:32:56;;;;;;;16.30;11.10;;;;;;;-2.90;76.93;99158.66;1780074;80;21498;-81
2021/03/06 00:35:29;;;;;;;;;;;;;;;-2.94;76.90;99168.27;1782624;80;21034;-83
2021/03/06 00:37:59;;;;;;;18.02;10.38;;;;;;;-2.98;76.90;99158.67;1780129;80;20424;-81
2021/03/06 00:40:27;;;;;;;14.95;9.65;;;;;;;-3.05;77.06;99150.35;1778464;80;21020;-82
2021/03/06 00:42:55;;;;;;;11.68;9.13;;;;;;;-3.10;77.13;99158.24;1780014;79;21019;-81
2021/03/06 00:45:30;;;;;;;16.75;10.13;;;;;;;-3.14;77.23;99157.83;1780120;80;21358;-81
2021/03/06 00:48:01;;;;;;;16.93;12.47;;;;;;;-3.18;77.51;99165.72;1780090;80;22042;-81
2021/03/06 00:50:35;;;;;;;15.90;11.08;;;;;;;-3.20;77.53;99164.83;1780166;80;21545;-82
2021/03/06 00:53:14;;;;;;;17.27;12.40;;;;;;;-3.24;77.65;99157.84;1779942;80;21320;-81
2021/03/06 00:55:49;;;;;;;17.05;12.53;;;;;;;-3.29;77.70;99165.28;1780269;80;21337;-82
2021/03/06 00:58:26;;;;;;;17.12;12.88;;;;;;;-3.31;77.83;99162.21;1778988;80;20908;-81
2021/03/06 01:04:03;;;;;;;21.17;14.40;;;;;;;-3.35;78.11;99161.34;1826914;77;28647;-81
2021/03/06 01:06:38;;;;;;;20.40;13.18;;;;;;;-3.43;78.14;99164.43;1825615;78;20923;-81
2021/03/06 01:09:12;;;;;;;15.18;12.93;;;;;;;-3.45;78.15;99166.19;1798697;78;21194;-81
2021/03/06 01:11:44;;;;;;;18.62;14.10;;;;;;;-3.47;78.21;99170.55;1825341;78;21011;-80
2021/03/06 01:14:19;;;;;;;18.35;12.73;;;;;;;-3.48;78.30;99170.13;1826238;78;20919;-81
2021/03/06 01:16:46;;;;;;;18.70;12.68;;;;;;;-3.51;78.40;99162.25;1825949;78;20973;-81
2021/03/06 01:19:19;;;;;;;22.62;13.13;;;;;;;-3.52;78.51;99174.94;1826289;78;21364;-81
2021/03/06 01:21:59;;;;;;;18.42;12.88;;;;;;;-3.55;78.57;99166.61;1825546;78;21319;-81
2021/03/06 01:24:32;;;;;;;15.78;11.75;;;;;;;-3.58;78.64;99170.55;1798247;78;20994;-81
2021/03/06 01:27:13;;;;;;;15.88;11.90;;;;;;;-3.59;78.69;99175.83;1801592;78;21343;-81
2021/03/06 01:29:46;;;;;;;15.88;11.73;;;;;;;-3.60;78.66;99169.68;1800552;78;20998;-80
2021/03/06 01:32:24;;;;;;;16.75;11.15;;;;;;;-3.60;78.69;99172.75;1825713;78;21045;-80
2021/03/06 01:34:58;;;;;;;14.80;9.85;;;;;;;-3.61;78.78;99177.14;1825701;78;21640;-80
2021/03/06 01:37:31;;;;;;;13.55;9.68;;;;;;;-3.60;78.80;99185.88;1825640;78;20923;-82
2021/03/06 01:40:06;;;;;;;13.98;10.45;;;;;;;-3.60;78.89;99184.13;1825613;78;21006;-80
2021/03/06 01:42:36;;;;;;;17.32;9.85;;;;;;;-3.59;78.85;99183.70;1825512;78;21369;-81
2021/03/06 01:45:18;;;;;;;19.77;11.43;;;;;;;-3.57;78.80;99178.87;1825840;78;21333;-79
2021/03/06 01:47:49;;;;;;;17.00;10.95;;;;;;;-3.58;78.76;99184.13;1825710;78;21313;-80
2021/03/06 01:50:37;;;;;;;16.35;11.40;;;;;;;-3.58;78.74;99180.19;1825679;78;20994;-81
2021/03/06 01:53:15;;;;;;;14.78;10.40;;;;;;;-3.55;78.76;99182.81;1842252;77;28010;-80
2021/03/06 01:55:51;;;;;;;15.78;10.58;;;;;;;-3.58;78.68;99188.06;1786359;79;20928;-80
2021/03/06 01:58:25;;;;;;;14.15;9.65;;;;;;;-3.59;78.64;99185.02;1818530;79;21174;-81
2021/03/06 02:01:31;;;;;;;14.70;11.93;;;;;;;-3.61;78.59;99178.87;1804260;77;38210;-81
2021/03/06 02:04:05;;;;;;;17.17;10.25;;;;;;;-3.58;78.54;99181.50;1780727;79;21538;-80
2021/03/06 02:06:36;;;;;;;15.23;11.85;;;;;;;-3.55;78.39;99179.73;1805237;78;21334;-81
2021/03/06 02:09:08;;;;;;;13.35;10.32;;;;;;;-3.56;78.45;99183.67;1774076;80;21051;-81
2021/03/06 02:12:09;;;;;;;16.90;11.30;;;;;;;-3.56;78.46;99184.98;1789145;79;21301;-81
2021/03/06 02:15:31;;;;;;;18.42;12.15;;;;;;;-3.54;78.42;99193.77;1783603;80;20959;-80
2021/03/06 02:18:21;;;;;;;15.38;10.90;;;;;;;-3.56;78.34;99193.77;1775232;80;21452;-81
2021/03/06 02:21:30;;;;;;;14.93;9.58;;;;;;;-3.57;78.40;99192.45;1807562;78;20929;-80
2021/03/06 02:24:37;;;;;;;17.95;10.25;;;;;;;-3.58;78.28;99203.81;1780251;80;21599;-80
2021/03/06 02:27:15;;;;;;;10.48;8.45;;;;;;;-3.60;78.21;99208.20;1804270;78;21143;-80
2021/03/06 02:29:50;;;;;;;13.60;8.93;;;;;;;-3.62;78.25;99215.22;1763435;79;21054;-79
2021/03/06 02:32:31;;;;;;;12.50;10.43;;;;;;;-3.67;78.33;99210.82;1788507;80;21055;-80
2021/03/06 02:35:16;;;;;;;15.88;10.98;;;;;;;-3.68;78.69;99214.76;1781067;79;21389;-80
2021/03/06 02:38:01;;;;;;;15.20;10.75;;;;;;;-3.68;78.91;99207.74;1778154;79;21461;-80
2021/03/06 02:40:30;;;;;;;16.97;9.95;;;;;;;-3.66;79.07;99220.46;1779899;79;23509;-80
2021/03/06 02:42:58;;;;;;;12.15;9.00;;;;;;;-3.64;79.29;99221.33;1804783;78;20966;-80
2021/03/06 02:45:26;;;;;;;11.78;7.80;;;;;;;-3.61;79.38;99224.82;1779839;80;20923;-81
2021/03/06 02:47:55;;;;;;;14.15;9.10;;;;;;;-3.60;79.37;99224.83;1726498;80;21223;-81
2021/03/06 02:50:25;;;;;;;14.35;10.32;;;;;;;-3.58;79.39;99231.39;1723980;80;20959;-80
2021/03/06 02:52:53;;;;;;;13.58;9.30;;;;;;;-3.58;79.38;99236.64;1776180;79;20939;-80
2021/03/06 02:55:22;;;;;;;11.55;8.73;;;;;;;-3.57;79.39;99238.41;1794749;78;21587;-80
2021/03/06 02:58:34;;;;;;;13.13;9.63;;;;;;;-3.55;79.46;99241.90;1802085;78;21091;-80
2021/03/06 03:01:04;;;;;;;16.10;9.58;;;;;;;-3.56;79.47;99245.39;1773826;79;21207;-80
2021/03/06 03:03:51;;;;;;;14.85;9.30;;;;;;;-3.52;79.41;99247.16;1769693;79;21066;-81
2021/03/06 03:06:34;;;;;;;14.50;9.40;;;;;;;-3.52;79.45;99249.33;1781755;78;21015;-82
2021/03/06 03:09:25;;;;;;;17.30;9.68;;;;;;;-3.52;79.38;99253.72;1788069;80;21369;-80
2021/03/06 03:12:03;;;;;;;13.65;8.88;;;;;;;-3.52;79.31;99256.34;1764545;79;20927;-80
2021/03/06 03:15:15;;;;;;;13.93;9.28;;;;;;;-3.52;79.19;99265.09;1776562;79;21215;-81
2021/03/06 03:17:48;;;;;;;14.78;10.18;;;;;;;-3.54;79.07;99259.42;1783552;79;21039;-81
2021/03/06 03:20:51;;;;;;;13.18;8.55;;;;;;;-3.56;79.08;99272.96;1810128;78;20992;-80
2021/03/06 03:23:34;;;;;;;13.95;9.38;;;;;;;-3.61;79.01;99272.09;1785048;80;20995;-81
2021/03/06 03:26:06;;;;;;;12.37;9.58;;;;;;;-3.66;79.07;99280.85;1776447;80;21079;-81
2021/03/06 03:28:33;;;;;;;13.83;8.85;;;;;;;-3.70;79.11;99285.64;1768334;80;21370;-78
2021/03/06 03:31:01;;;;;;;16.10;9.95;;;;;;;-3.73;79.09;99293.52;1750754;78;20939;-80
2021/03/06 03:33:33;;;;;;;13.70;9.33;;;;;;;-3.77;79.11;99296.99;1777322;79;21050;-77
2021/03/06 03:36:02;;;;;;;14.15;9.83;;;;;;;-3.81;79.12;99291.31;1779347;79;20970;-79
2021/03/06 03:38:32;;;;;;;13.00;8.53;;;;;;;-3.83;79.22;99295.69;1776130;79;20892;-81
2021/03/06 03:41:04;;;;;;;14.45;9.70;;;;;;;-3.88;79.22;99292.15;1778761;80;21204;-82
2021/03/06 03:43:32;;;;;;;11.97;8.70;;;;;;;-3.91;79.20;99297.39;1787878;79;20967;-81
2021/03/06 03:46:01;;;;;;;10.63;8.23;;;;;;;-3.94;79.23;99296.06;1782830;80;21904;-82
2021/03/06 03:48:31;;;;;;;16.07;10.03;;;;;;;-3.95;79.26;99300.89;1718174;80;20936;-81
2021/03/06 03:51:03;;;;;;;13.08;8.45;;;;;;;-3.99;79.37;99306.55;1781403;79;20949;-80
2021/03/06 03:53:30;;;;;;;14.15;9.30;;;;;;;-4.00;79.41;99309.61;1813503;78;21213;-80
2021/03/06 03:56:00;;;;;;;12.73;8.68;;;;;;;-4.02;79.38;99313.09;1782869;80;21109;-81
2021/03/06 03:58:28;;;;;;;15.25;9.40;;;;;;;-4.03;79.38;99320.09;1783078;80;20988;-81
2021/03/06 04:01:01;;;;;;;14.18;8.90;;;;;;;-4.07;79.36;99328.81;1799636;78;21540;-81
2021/03/06 04:03:31;;;;;;;11.60;8.58;;;;;;;-4.10;79.30;99326.20;1796744;79;20919;-80
2021/03/06 04:06:01;;;;;;;8.95;7.20;;;;;;;-4.12;79.32;99329.69;1801268;78;21163;-80
2021/03/06 04:08:30;;;;;;;12.73;9.88;;;;;;;-4.15;79.38;99327.91;1775419;79;20998;-80
2021/03/06 04:10:57;;;;;;;10.43;8.58;;;;;;;-4.18;79.37;99332.73;1775910;79;20990;-81
2021/03/06 04:13:26;;;;;;;14.33;9.38;;;;;;;-4.20;79.44;99332.27;1789293;79;20919;-81
2021/03/06 04:15:54;;;;;;;11.85;9.18;;;;;;;-4.22;79.48;99334.02;1787392;79;21114;-80
2021/03/06 04:18:23;;;;;;;14.98;10.40;;;;;;;-4.25;79.56;99336.63;1787425;80;22251;-80
2021/03/06 04:20:53;;;;;;;16.15;9.78;;;;;;;-4.26;79.61;99342.73;1782400;80;21039;-80
2021/03/06 04:23:20;;;;;;;14.18;10.10;;;;;;;-4.29;79.61;99340.09;1784014;80;21591;-80
2021/03/06 04:25:48;;;;;;;13.55;9.53;;;;;;;-4.29;79.59;99342.70;1785678;80;21004;-81
2021/03/06 04:28:16;;;;;;;15.65;9.40;;;;;;;-4.32;79.56;99341.38;1777014;79;21506;-82
2021/03/06 04:30:43;;;;;;;15.75;9.60;;;;;;;-4.33;79.54;99342.27;1769565;80;21376;-81
2021/03/06 04:33:11;;;;;;;11.65;9.60;;;;;;;-4.36;79.57;99345.30;1770828;80;21333;-81
2021/03/06 04:35:41;;;;;;;11.75;9.28;;;;;;;-4.38;79.61;99341.80;1788411;80;21322;-81
2021/03/06 04:38:10;;;;;;;15.08;10.00;;;;;;;-4.39;79.56;99342.65;1780526;79;20979;-81
2021/03/06 04:40:37;;;;;;;12.95;8.68;;;;;;;-4.40;79.57;99341.33;1767814;79;21066;-83
2021/03/06 04:43:06;;;;;;;18.55;10.08;;;;;;;-4.43;79.55;99342.21;1771582;79;21381;-82
2021/03/06 04:45:34;;;;;;;14.07;9.10;;;;;;;-4.46;79.66;99346.13;1801890;78;20955;-84
2021/03/06 04:48:02;;;;;;;18.00;9.80;;;;;;;-4.47;79.70;99344.36;1778463;80;21585;-82
2021/03/06 04:50:35;;;;;;;15.88;10.40;;;;;;;-4.48;79.74;99341.28;1722433;80;20932;-81
2021/03/06 04:53:03;;;;;;;14.40;9.60;;;;;;;-4.49;79.71;99346.10;1789840;79;21329;-82
2021/03/06 04:55:31;;;;;;;12.60;8.83;;;;;;;-4.49;79.73;99347.41;1776057;79;21364;-84
2021/03/06 04:57:59;;;;;;;13.70;8.83;;;;;;;-4.49;79.87;99351.34;1784991;79;21102;-82
2021/03/06 05:00:27;;;;;;;12.28;9.48;;;;;;;-4.50;79.87;99344.78;1800264;78;21014;-81
2021/03/06 05:02:55;;;;;;;10.20;7.90;;;;;;;-4.50;79.80;99354.83;1775491;80;21496;-82
2021/03/06 05:05:24;;;;;;;10.38;8.65;;;;;;;-4.49;79.78;99361.84;1769168;80;21584;-83
2021/03/06 05:07:52;;;;;;;12.15;7.87;;;;;;;-4.48;79.84;99358.77;1773541;80;21362;-81
2021/03/06 05:10:23;;;;;;;10.18;7.90;;;;;;;-4.48;79.87;99353.52;1760171;80;21432;-81
2021/03/06 05:12:53;;;;;;;;;;;;;;;-4.47;79.89;99354.84;1802423;78;21527;-82
2021/03/06 05:15:21;;;;;;;11.30;7.75;;;;;;;-4.44;79.91;99364.05;1800960;79;20346;-84
2021/03/06 05:17:49;;;;;;;11.68;7.15;;;;;;;-4.41;80.06;99368.00;1796752;78;20986;-82
2021/03/06 05:20:17;;;;;;;10.15;7.85;;;;;;;-4.39;80.06;99368.87;1801659;78;21372;-82
2021/03/06 05:22:45;;;;;;;8.98;7.40;;;;;;;-4.34;80.01;99375.91;1800412;79;21055;-81
2021/03/06 05:25:14;;;;;;;11.38;7.90;;;;;;;-4.28;79.93;99378.58;1777445;80;20932;-81
2021/03/06 05:27:43;;;;;;;11.15;8.00;;;;;;;-4.23;79.86;99371.59;1773934;79;21500;-83
2021/03/06 05:30:11;;;;;;;10.65;8.95;;;;;;;-4.17;79.79;99381.69;1772633;80;20931;-83
2021/03/06 05:32:39;;;;;;;11.83;9.35;;;;;;;-4.06;79.74;99380.44;1770337;80;22354;-81
2021/03/06 05:35:08;;;;;;;12.80;9.93;;;;;;;-3.93;79.53;99380.50;1778069;80;21023;-84
2021/03/06 05:37:35;;;;;;;12.30;9.93;;;;;;;-3.81;79.38;99381.44;1782282;79;21444;-82
2021/03/06 05:40:06;;;;;;;14.28;9.70;;;;;;;-3.67;79.12;99384.12;1797463;78;21032;-83
2021/03/06 05:42:36;;;;;;;12.63;8.48;;;;;;;-3.50;79.00;99388.54;1803883;78;20917;-83
2021/03/06 05:45:09;;;;;;;16.00;9.20;;;;;;;-3.32;78.61;99385.97;1784341;80;21260;-83
2021/03/06 05:47:40;;;;;;;10.55;7.92;;;;;;;-3.09;78.29;99382.50;1777517;80;21529;-82
2021/03/06 05:50:10;;;;;;;12.30;8.05;;;;;;;-2.84;76.96;99386.03;1774109;79;21006;-81
2021/03/06 05:52:40;;;;;;;12.13;8.88;;;;;;;-2.61;76.52;99391.30;1777345;80;21711;-82
2021/03/06 05:55:27;;;;;;;11.33;9.20;;;;;;;-2.38;76.12;99389.98;1779001;80;21027;-84
2021/03/06 05:57:56;;;;;;;12.75;8.48;;;;;;;-2.18;75.35;99398.27;1785021;80;22305;-83
2021/03/06 06:00:25;;;;;;;11.22;9.15;;;;;;;-2.04;74.70;99394.30;1768806;80;21139;-84
2021/03/06 06:02:56;;;;;;;12.10;8.38;;;;;;;-1.95;74.42;99402.17;1783609;80;20917;-82
2021/03/06 06:05:26;;;;;;;12.45;8.35;;;;;;;-1.91;73.86;99401.72;1777082;80;20956;-81
2021/03/06 06:07:59;;;;;;;14.50;8.58;;;;;;;-1.89;73.53;99411.38;1787669;80;20948;-84
2021/03/06 06:10:30;;;;;;;13.93;9.53;;;;;;;-1.91;72.96;99405.22;1715595;80;22298;-82
2021/03/06 06:12:59;;;;;;;10.25;8.00;;;;;;;-1.93;72.99;99406.13;1780887;80;21883;-83
2021/03/06 06:15:27;;;;;;;11.93;9.33;;;;;;;-1.97;72.70;99406.58;1776178;80;21019;-82
2021/03/06 06:17:56;;;;;;;12.85;9.45;;;;;;;-2.02;72.57;99416.22;1779505;80;21054;-82
2021/03/06 06:20:28;;;;;;;13.98;8.98;;;;;;;-2.07;72.66;99414.05;1782821;79;21643;-85
2021/03/06 06:23:16;;;;;;;14.55;8.08;;;;;;;-2.09;72.62;99426.34;1784924;80;21128;-85
2021/03/06 06:25:46;;;;;;;12.47;9.05;;;;;;;-2.15;72.81;99418.45;1790236;79;20962;-81
2021/03/06 06:28:16;;;;;;;10.95;8.83;;;;;;;-2.17;72.93;99422.86;1797532;79;21635;-82
2021/03/06 06:30:43;;;;;;;13.30;10.25;;;;;;;-2.22;73.02;99426.36;1784144;78;21357;-83
2021/03/06 06:33:31;;;;;;;14.38;9.90;;;;;;;-2.21;73.09;99425.49;1728774;79;20924;-82
2021/03/06 06:35:58;;;;;;;12.33;9.03;;;;;;;-2.22;73.28;99426.36;1811923;78;21145;-85
2021/03/06 06:38:43;;;;;;;16.97;9.68;;;;;;;-2.21;73.36;99428.13;1782464;80;21086;-84
2021/03/06 06:41:10;;;;;;;15.00;10.20;;;;;;;-2.17;73.28;99439.97;1769791;80;21003;-83
2021/03/06 06:43:39;;;;;;;15.03;10.25;;;;;;;-2.14;73.42;99433.35;1762363;80;20990;-82
2021/03/06 06:46:08;;;;;;;13.08;10.98;;;;;;;-2.10;73.60;99436.42;1786053;78;20944;-83
2021/03/06 06:48:56;;;;;;;14.90;11.00;;;;;;;-2.05;73.56;99446.50;1801651;79;21214;-83
2021/03/06 06:51:26;;;;;;;13.43;10.10;;;;;;;-2.02;73.61;99447.81;1772265;79;21478;-83
2021/03/06 06:54:13;;;;;;;13.78;10.85;;;;;;;-2.00;73.55;99453.98;1811296;78;21022;-83
2021/03/06 06:56:43;;;;;;;17.80;11.33;;;;;;;-1.97;73.71;99455.29;1782675;78;20927;-83
2021/03/06 06:59:16;;;;;;;14.18;12.55;;;;;;;-1.92;73.74;99458.78;1775233;79;20919;-82
2021/03/06 07:01:45;;;;;;;16.32;11.88;;;;;;;-1.86;74.10;99452.19;1775839;78;21193;-83
2021/03/06 07:04:15;;;;;;;13.00;10.50;;;;;;;-1.76;74.01;99460.07;1781709;79;21082;-83
2021/03/06 07:06:44;;;;;;;17.50;12.43;;;;;;;-1.67;73.93;99465.28;1783456;79;20891;-82
2021/03/06 07:09:14;;;;;;;14.03;11.08;;;;;;;-1.59;73.74;99470.12;1725948;79;20934;-83
2021/03/06 07:11:44;;;;;;;18.37;11.53;;;;;;;-1.49;73.68;99469.19;1780497;79;20998;-84
2021/03/06 07:14:13;;;;;;;15.98;10.30;;;;;;;-1.40;73.44;99475.30;1787734;80;21159;-84
2021/03/06 07:17:03;;;;;;;15.13;10.55;;;;;;;-1.34;73.38;99481.88;1779039;79;21039;-83
2021/03/06 07:19:32;;;;;;;11.93;8.53;;;;;;;-1.28;73.42;99488.44;1773781;79;21000;-83
2021/03/06 07:22:00;;;;;;;10.55;8.73;;;;;;;-1.25;72.94;99496.34;1817663;78;21671;-83
2021/03/06 07:24:28;;;;;;;11.12;8.45;;;;;;;-1.23;73.07;99508.19;1769681;80;20999;-83
2021/03/06 07:26:59;;;;;;;11.83;8.48;;;;;;;-1.28;72.98;99501.62;1800598;78;21196;-85
2021/03/06 07:29:29;;;;;;;10.43;8.10;;;;;;;-1.29;73.33;99514.38;1801329;78;21066;-85
2021/03/06 07:31:57;;;;;;;12.37;8.90;;;;;;;-1.36;73.57;99508.69;1787206;80;22163;-85
2021/03/06 07:34:30;;;;;;;11.88;9.95;;;;;;;-1.36;73.87;99510.00;1818902;78;20972;-84
2021/03/06 07:37:07;;;;;;;18.57;10.98;;;;;;;-1.35;74.11;99508.67;1787796;80;21019;-82
2021/03/06 07:39:43;;;;;;;13.30;9.10;;;;;;;-1.31;74.39;99517.02;1814840;78;21648;-83
2021/03/06 07:42:44;;;;;;;13.35;9.70;;;;;;;-1.28;74.32;99510.84;1760777;80;21157;-84
2021/03/06 07:45:22;;;;;;;13.45;10.10;;;;;;;-1.22;74.18;99516.55;1780906;80;21264;-85
2021/03/06 07:48:13;;;;;;;13.13;9.55;;;;;;;-1.22;74.07;99514.78;1787076;79;21027;-85
2021/03/06 07:50:50;;;;;;;10.93;8.58;;;;;;;-1.21;73.76;99516.55;1808492;78;21042;-83
2021/03/06 07:53:31;;;;;;;12.35;8.88;;;;;;;-1.14;73.65;99516.07;1788690;80;21199;-84
2021/03/06 07:55:49;;;;;;;12.33;9.55;;;;;;;-1.18;73.00;99521.80;1791387;79;20991;-86
2021/03/06 07:58:19;;;;;;;13.38;9.98;;;;;;;-1.12;73.06;99532.33;1833669;77;21040;-84
2021/03/06 08:00:58;;;;;;;10.45;9.20;;;;;;;-1.15;73.09;99528.39;1829826;77;20992;-86
2021/03/06 08:03:34;;;;;;;11.88;9.18;;;;;;;-1.07;73.17;99540.64;1807690;78;21594;-84
2021/03/06 08:06:25;;;;;;;12.47;10.30;;;;;;;-1.10;73.08;99543.73;1814655;77;21334;-83
2021/03/06 08:09:04;;;;;;;14.20;10.60;;;;;;;-1.16;72.94;99541.58;1828543;77;21020;-84
2021/03/06 08:11:40;;;;;;;14.98;9.45;;;;;;;-1.24;72.45;99536.33;1750648;80;21111;-84
2021/03/06 08:14:30;;;;;;;12.13;9.08;;;;;;;-1.20;73.14;99557.86;1737068;80;20981;-84
2021/03/06 08:16:58;;;;;;;12.10;9.88;;;;;;;-1.24;73.44;99547.32;1750839;80;21086;-86
2021/03/06 08:19:26;;;;;;;12.13;9.35;;;;;;;-1.22;73.39;99545.55;1824991;78;21342;-84
2021/03/06 08:21:56;;;;;;;12.60;9.45;;;;;;;-1.25;73.09;99538.52;1827759;78;21629;-81
2021/03/06 08:24:28;;;;;;;10.78;8.33;;;;;;;-1.23;73.14;99543.36;1811013;78;21013;-84
2021/03/06 08:27:07;;;;;;;10.80;8.35;;;;;;;-1.23;73.24;99546.42;1812065;78;21585;-87
2021/03/06 08:29:38;;;;;;;11.57;9.05;;;;;;;-1.20;73.50;99555.22;1800720;78;21082;-86
2021/03/06 08:32:30;;;;;;;11.88;9.10;;;;;;;-1.19;73.62;99547.72;1806807;78;22565;-84
2021/03/06 08:35:01;;;;;;;9.85;8.00;;;;;;;-1.14;73.46;99551.66;1824069;78;21597;-88
2021/03/06 08:37:31;;;;;;;9.63;7.60;;;;;;;-1.09;73.18;99548.56;1815091;78;21057;-85
2021/03/06 08:40:16;;;;;;;9.68;7.80;;;;;;;-1.07;73.03;99554.73;1819827;78;21111;-85
2021/03/06 08:42:52;;;;;;;9.83;8.03;;;;;;;-1.06;72.92;99552.95;1812642;78;21007;-80
2021/03/06 08:45:24;;;;;;;9.88;8.88;;;;;;;-1.01;73.30;99555.12;1822761;78;21394;-81
2021/03/06 08:47:57;;;;;;;9.28;7.47;;;;;;;-0.99;73.31;99552.93;1812490;78;21020;-73
2021/03/06 08:50:30;;;;;;;9.90;7.03;;;;;;;-0.92;72.94;99547.18;1827024;78;20985;-75
2021/03/06 08:53:06;;;;;;;11.70;9.53;;;;;;;-0.86;72.97;99553.75;1810971;78;21031;-76
2021/03/06 08:55:40;;;;;;;12.90;9.25;;;;;;;-0.77;73.02;99549.75;1813422;78;21015;-73
2021/03/06 08:58:11;;;;;;;9.93;8.60;;;;;;;-0.67;73.11;99553.66;1815399;78;21120;-72
2021/03/06 09:00:50;;;;;;;9.73;8.58;;;;;;;-0.64;72.13;99553.65;1807039;78;21615;-72
2021/03/06 09:03:25;;;;;;;10.25;8.38;;;;;;;-0.58;72.17;99556.26;1823126;78;20957;-74
2021/03/06 09:05:56;;;;;;;10.35;8.48;;;;;;;-0.61;71.78;99551.00;1824631;78;20957;-72
2021/03/06 09:08:27;;;;;;;11.22;8.00;;;;;;;-0.58;71.90;99560.22;1821806;78;20977;-72
2021/03/06 09:10:58;;;;;;;14.15;9.13;;;;;;;-0.55;72.06;99566.34;1811097;78;21240;-73
2021/03/06 09:13:31;;;;;;;9.33;7.92;;;;;;;-0.49;72.49;99560.16;1812192;78;20960;-73
2021/03/06 09:16:04;;;;;;;11.95;9.05;;;;;;;-0.35;72.18;99560.51;1817323;78;20940;-71
2021/03/06 09:18:36;;;;;;;13.32;8.85;;;;;;;-0.22;72.28;99565.70;1818240;78;21538;-74
2021/03/06 09:21:22;;;;;;;12.60;9.90;;;;;;;-0.07;72.28;99573.94;1804464;78;20968;-75
2021/03/06 09:23:54;;;;;;;13.32;9.53;;;;;;;0.14;72.13;99572.02;1806589;78;21815;-74
2021/03/06 09:26:26;;;;;;;11.33;7.72;;;;;;;0.27;71.04;99571.05;1805442;78;20997;-76
2021/03/06 09:28:58;;;;;;;10.03;8.60;;;;;;;0.33;70.29;99574.95;1813322;78;21508;-73
2021/03/06 09:31:28;;;;;;;15.10;10.10;;;;;;;0.38;70.06;99573.59;1825669;78;21080;-76
2021/03/06 09:33:57;;;;;;;10.82;9.10;;;;;;;0.33;70.00;99567.02;1780393;80;21077;-76
2021/03/06 09:36:32;;;;;;;8.93;7.62;;;;;;;0.20;69.60;99577.25;1748459;81;21817;-76
2021/03/06 09:39:05;;;;;;;9.78;8.38;;;;;;;0.08;69.78;99587.91;1813443;78;20968;-74
2021/03/06 09:41:42;;;;;;;12.78;9.53;;;;;;;0.05;70.19;99593.22;1804028;78;21585;-72
2021/03/06 09:44:12;;;;;;;9.60;7.25;;;;;;;0.02;71.01;99596.78;1818811;78;21018;-73
2021/03/06 09:46:39;;;;;;;12.25;8.10;;;;;;;-0.11;70.00;99600.38;1804045;78;21035;-74
2021/03/06 09:49:14;;;;;;;9.00;7.50;;;;;;;-0.15;70.08;99600.86;1821141;78;21416;-75
2021/03/06 09:51:54;;;;;;;9.88;7.92;;;;;;;-0.13;70.13;99610.95;1819248;78;22155;-74
2021/03/06 09:54:21;;;;;;;10.72;8.45;;;;;;;-0.12;70.04;99606.13;1815131;78;20969;-75
2021/03/06 09:56:59;;;;;;;11.00;7.80;;;;;;;-0.06;70.17;99615.78;1815931;78;20991;-75
2021/03/06 09:59:29;;;;;;;7.03;6.25;;;;;;;0.03;70.07;99618.78;1821293;78;21163;-73
2021/03/06 10:02:13;;;;;;;7.78;6.97;;;;;;;0.09;69.90;99613.00;1818511;77;21201;-74
2021/03/06 10:04:47;;;;;;;10.67;5.77;;;;;;;0.22;69.50;99620.42;1797002;77;21007;-74
2021/03/06 10:07:21;;;;;;;7.22;4.50;;;;;;;0.41;68.74;99616.28;1819337;78;21087;-77
2021/03/06 10:09:49;;;;;;;5.72;4.75;;;;;;;0.52;67.18;99615.31;1815837;78;21044;-72
2021/03/06 10:12:18;;;;;;;5.20;4.65;;;;;;;0.66;66.92;99615.19;1815222;78;20964;-74
2021/03/06 10:14:48;;;;;;;8.33;5.72;;;;;;;0.80;66.48;99616.80;1813631;78;21662;-75
2021/03/06 10:17:22;;;;;;;6.55;4.55;;;;;;;0.99;66.91;99614.38;1815691;78;21079;-75
2021/03/06 10:19:56;;;;;;;6.83;4.72;;;;;;;1.20;66.18;99626.51;1815807;78;21111;-75
2021/03/06 10:22:26;;;;;;;4.58;3.58;;;;;;;1.39;63.77;99627.16;1813797;77;20959;-75
2021/03/06 10:25:02;;;;;;;4.20;3.72;;;;;;;1.49;63.40;99625.27;1821616;78;20984;-72
2021/03/06 10:27:46;;;;;;;5.60;3.83;;;;;;;1.47;61.06;99623.52;1826235;78;21366;-75
2021/03/06 10:30:23;;;;;;;4.45;3.60;;;;;;;1.59;61.19;99628.66;1815958;78;21035;-74
2021/03/06 10:33:04;;;;;;;4.83;3.75;;;;;;;1.68;60.60;99631.19;1821929;78;20964;-73
2021/03/06 10:35:48;;;;;;;5.92;4.05;;;;;;;1.77;60.52;99637.69;1814035;78;20984;-75
2021/03/06 10:38:28;;;;;;;7.05;4.50;;;;;;;1.85;60.56;99630.97;1822286;78;21136;-75
2021/03/06 10:41:01;;;;;;;3.65;3.33;;;;;;;1.94;60.36;99627.29;1828015;78;21183;-75
2021/03/06 10:43:40;;;;;;;7.10;4.00;;;;;;;1.96;59.00;99626.84;1820046;78;21568;-75
2021/03/06 10:46:21;;;;;;;4.95;4.35;;;;;;;1.99;60.12;99628.13;1812100;78;21195;-76
2021/03/06 10:48:54;;;;;;;5.92;4.87;;;;;;;2.00;59.78;99629.86;1811426;78;20920;-76
2021/03/06 10:51:40;;;;;;;6.90;4.78;;;;;;;1.93;60.00;99633.05;1755271;81;21139;-76
2021/03/06 10:54:08;;;;;;;;;;;;;;;1.89;59.97;99621.19;1764615;80;21533;-72
2021/03/06 10:56:37;;;;;;;5.47;4.97;;;;;;;1.83;60.45;99622.60;1803918;77;20560;-76
2021/03/06 10:59:05;;;;;;;5.87;4.72;;;;;;;1.75;60.76;99614.33;1823886;78;21104;-74
2021/03/06 11:01:50;;;;;;;4.95;4.45;;;;;;;1.67;60.52;99618.87;1810768;78;20981;-73
2021/03/06 11:04:30;;;;;;;6.35;4.80;;;;;;;1.68;61.04;99615.30;1825179;77;21080;-73
2021/03/06 11:07:05;;;;;;;6.87;4.83;;;;;;;1.71;61.39;99612.61;1813872;78;21373;-73
2021/03/06 11:09:39;;;;;;;6.40;4.65;;;;;;;1.75;61.65;99605.06;1808244;78;21075;-74
2021/03/06 11:12:21;;;;;;;4.90;4.33;;;;;;;1.83;62.05;99606.28;1802867;78;21007;-73
2021/03/06 11:15:13;;;;;;;6.10;4.97;;;;;;;1.97;61.67;99604.72;1825419;78;21036;-73
2021/03/06 11:17:47;;;;;;;7.12;4.25;;;;;;;2.01;60.22;99599.81;1824155;78;21041;-75
2021/03/06 11:20:21;;;;;;;6.87;4.53;;;;;;;2.07;60.58;99601.05;1814824;78;22248;-68
2021/03/06 11:22:51;;;;;;;4.95;3.70;;;;;;;2.09;59.10;99589.96;1826101;78;21454;-75
2021/03/06 11:25:23;;;;;;;3.12;2.65;;;;;;;2.11;58.10;99595.23;1820422;78;20981;-75
2021/03/06 11:27:59;;;;;;;4.08;3.42;;;;;;;2.08;57.61;99590.88;1786908;78;21008;-75
2021/03/06 11:30:39;;;;;;;4.05;3.20;;;;;;;2.05;57.96;99588.28;1778362;78;20988;-78
2021/03/06 11:33:14;;;;;;;5.25;3.33;;;;;;;1.97;56.92;99591.05;1818924;78;21023;-77
2021/03/06 11:35:46;;;;;;;3.75;2.60;;;;;;;1.90;56.34;99591.16;1828180;78;21007;-76
2021/03/06 11:38:17;;;;;;;4.80;3.00;;;;;;;1.83;56.57;99589.48;1788803;77;20995;-75
2021/03/06 11:40:48;;;;;;;3.90;2.72;;;;;;;1.83;56.68;99596.11;1826482;78;21609;-73
2021/03/06 11:43:18;;;;;;;4.53;2.75;;;;;;;1.83;56.48;99589.48;1825821;78;21585;-75
2021/03/06 11:45:54;;;;;;;3.50;2.80;;;;;;;1.90;58.04;99590.70;1827588;78;21648;-78
2021/03/06 11:48:23;;;;;;;7.15;3.90;;;;;;;1.98;57.94;99582.64;1823967;78;21103;-75
2021/03/06 11:50:51;;;;;;;3.65;2.92;;;;;;;2.02;58.04;99588.33;1815929;78;21004;-74
2021/03/06 11:53:23;;;;;;;3.45;2.70;;;;;;;2.05;56.82;99582.98;1820580;78;21528;-78
2021/03/06 11:55:53;;;;;;;3.83;2.77;;;;;;;2.05;56.15;99593.58;1813186;78;21641;-77
2021/03/06 11:58:22;;;;;;;3.55;2.83;;;;;;;1.99;56.66;99591.02;1813713;78;21195;-76
2021/03/06 12:00:53;;;;;;;9.23;3.20;;;;;;;1.96;56.40;99588.42;1827713;78;20973;-75